Check out our new PWSWeather beta!
PWSweather.com
Personal Weather Stations
Station Observations
WISCHPK61
Green Bay Schmitt Park, Green Bay, WI 54311

Green Bay Schmitt ParkGreen Bay, WI 54311

Lat: 44.514277, Lon: -87.935067

Elevation: 735

Station Type: Acu Rite Pro Weather Center model 02032C

http://greenbayweathercam.com

High Low Average
Temperature 18.3°F-7.6°C -0.4°F-18.0°C 9.5°F-12.5°C
Dew Point 18.1°F-7.7°C -9.7°F-23.2°C 6.1°F-14.4°C
Winds Calm Calm Calm Calm Calm SWCalm SW
Wind Gusts 1.2 mph1.9 kmh -- --
Humidity 99% 41% 88%
Pressure 29.65 in1004.1 mb 29.20 in988.8 mb -
Precipitation 0.00 in0.0 mm - -
Hour Temp Dew Point Humidity Winds Wind Gusts Pressure Precip Precip Rate Daily Precip Total
12:00 AM 13.8°F-10.1°C 8.2°F-13.2°C 78% Calm Calm -- 29.20 in988.8 mb - 0.00 in0.0 mm 0.00 in0.0 mm
01:00 AM 12.6°F-10.8°C 12.4°F-10.9°C 99% Calm Calm -- 29.21 in989.2 mb - 0.00 in0.0 mm 0.00 in0.0 mm
02:00 AM 11.3°F-11.5°C 11.1°F-11.6°C 99% Calm Calm -- 29.23 in989.8 mb - 0.00 in0.0 mm 0.00 in0.0 mm
03:00 AM 9.9°F-12.3°C 9.7°F-12.4°C 99% Calm Calm -- 29.23 in989.8 mb - 0.00 in0.0 mm 0.00 in0.0 mm
04:00 AM 9.1°F-12.7°C 8.9°F-12.8°C 99% Calm Calm -- 29.25 in990.5 mb - 0.00 in0.0 mm 0.00 in0.0 mm
05:00 AM 8.6°F-13.0°C 8.4°F-13.1°C 99% Calm Calm -- 29.29 in991.9 mb - 0.00 in0.0 mm 0.00 in0.0 mm
06:00 AM 8.2°F-13.2°C 8.0°F-13.3°C 99% Calm Calm -- 29.31 in992.6 mb - 0.00 in0.0 mm 0.00 in0.0 mm
07:00 AM 7.2°F-13.8°C 7.0°F-13.9°C 99% Calm Calm -- 29.34 in993.6 mb - 0.00 in0.0 mm 0.00 in0.0 mm
08:00 AM 6.1°F-14.4°C 5.9°F-14.5°C 99% Calm Calm -- 29.38 in994.9 mb - 0.00 in0.0 mm 0.00 in0.0 mm
09:00 AM 6.6°F-14.1°C 6.4°F-14.2°C 99% Calm Calm 1.2 mph1.9 kmh 29.41 in995.9 mb - 0.00 in0.0 mm 0.00 in0.0 mm
10:00 AM 10.2°F-12.1°C 5.3°F-14.8°C 80% Calm Calm 1.2 mph1.9 kmh 29.43 in996.6 mb - 0.00 in0.0 mm 0.00 in0.0 mm
11:00 AM 13.0°F-10.6°C 2.4°F-16.4°C 62% Calm Calm -- 29.45 in997.3 mb - 0.00 in0.0 mm 0.00 in0.0 mm
12:00 PM 16.1°F-8.8°C 2.4°F-16.4°C 54% Calm Calm -- 29.45 in997.3 mb - 0.00 in0.0 mm 0.00 in0.0 mm
01:00 PM 18.3°F-7.6°C 18.1°F-7.7°C 99% Calm Calm -- 29.45 in997.3 mb - 0.00 in0.0 mm 0.00 in0.0 mm
02:00 PM 15.9°F-8.9°C 7.8°F-13.4°C 70% Calm Calm -- 29.46 in997.6 mb - 0.00 in0.0 mm 0.00 in0.0 mm
03:00 PM 14.0°F-10.0°C 2.7°F-16.3°C 60% Calm Calm -- 29.47 in998.0 mb - 0.00 in0.0 mm 0.00 in0.0 mm
04:00 PM 12.0°F-11.1°C 11.8°F-11.2°C 99% Calm Calm -- 29.49 in998.6 mb - 0.00 in0.0 mm 0.00 in0.0 mm
05:00 PM 9.3°F-12.6°C -9.7°F-23.2°C 41% Calm Calm -- 29.51 in999.3 mb - 0.00 in0.0 mm 0.00 in0.0 mm
06:00 PM 7.5°F-13.6°C 1.5°F-16.9°C 76% Calm Calm -- 29.54 in1000.3 mb - 0.00 in0.0 mm 0.00 in0.0 mm
07:00 PM 6.6°F-14.1°C 6.4°F-14.2°C 99% Calm Calm -- 29.56 in1001.0 mb - 0.00 in0.0 mm 0.00 in0.0 mm
08:00 PM 5.4°F-14.8°C 5.2°F-14.9°C 99% Calm Calm -- 29.58 in1001.7 mb - 0.00 in0.0 mm 0.00 in0.0 mm
09:00 PM 4.3°F-15.4°C 4.0°F-15.6°C 99% Calm Calm -- 29.60 in1002.4 mb - 0.00 in0.0 mm 0.00 in0.0 mm
10:00 PM 2.1°F-16.6°C 1.9°F-16.7°C 99% Calm Calm -- 29.63 in1003.4 mb - 0.00 in0.0 mm 0.00 in0.0 mm
11:00 PM -0.4°F-18.0°C -0.6°F-18.1°C 99% Calm Calm -- 29.65 in1004.1 mb - 0.00 in0.0 mm 0.00 in0.0 mm